La Sarre, Canada
Current Conditions -  °F | °C
As of 6:00 AM on Saturday 20 Dec 2014 (Local Time) from CYUY Reporting Station
Ice Pellets Ice Pellets  
Wind Chill: -8°   Ceiling: 100
Heat Index: -8°   Visibility: 0.5mi
Dew Point: -11°   Wind: 2mph
Humidity: 84%   Direction: 230°SW
Pressure: 30.28"   Gusts: NA
Location:  48.8°N, 79.2°W
Report Text: CYUY 201100Z 23002KT 1/2SM IC BR VV001 M22/M24 A3028 RMK FG8 SLP289
Loading
Personal Weather Stations






























Interactive Weather Map New forecast layout! Learn more

10-Day Weather Forecast

Advertisements
Track Severe Weather on mobile